createdAt,value
2023-09-08T00:01:32.350Z,98839.28
2023-09-08T00:04:23.192Z,98835.06
2023-09-08T00:07:13.985Z,98823.47
2023-09-08T00:10:05.268Z,98835.63
2023-09-08T00:12:56.015Z,98821.94
2023-09-08T00:15:46.721Z,98817.16
2023-09-08T00:18:37.442Z,98814.13
2023-09-08T00:21:28.608Z,98814.72
2023-09-08T00:24:19.742Z,98814.28
2023-09-08T00:27:11.209Z,98821.09
2023-09-08T00:30:03.174Z,98823.50
2023-09-08T00:32:54.201Z,98813.63
2023-09-08T00:35:51.164Z,98816.84
2023-09-08T00:38:42.642Z,98813.22
2023-09-08T00:41:34.465Z,98817.22
2023-09-08T00:44:25.305Z,98814.97
2023-09-08T00:47:16.345Z,98814.56
2023-09-08T00:50:08.038Z,98818.53
2023-09-08T00:52:58.909Z,98813.91
2023-09-08T00:55:50.310Z,98822.91
2023-09-08T00:58:41.254Z,98817.22
2023-09-08T01:01:32.740Z,98816.81
2023-09-08T01:04:23.555Z,98816.41
2023-09-08T01:07:16.027Z,98811.31
2023-09-08T01:10:07.503Z,98801.25
2023-09-08T01:12:58.735Z,98806.25
2023-09-08T01:15:50.666Z,98810.84
2023-09-08T01:18:41.932Z,98807.19
2023-09-08T01:21:44.709Z,98809.59
2023-09-08T01:25:21.185Z,98798.94
2023-09-08T01:28:13.466Z,98803.38
2023-09-08T01:31:05.004Z,98808.00
2023-09-08T01:33:56.697Z,98810.25
2023-09-08T01:36:47.460Z,98808.88
2023-09-08T01:39:38.181Z,98807.25
2023-09-08T01:42:28.985Z,98810.09
2023-09-08T01:45:19.786Z,98810.09
2023-09-08T01:48:10.618Z,98807.25
2023-09-08T01:51:01.324Z,98809.44
2023-09-08T01:53:52.205Z,98813.44
2023-09-08T01:56:42.943Z,98816.44
2023-09-08T01:59:33.738Z,98809.16
2023-09-08T02:02:24.542Z,98812.38
2023-09-08T02:05:15.962Z,98810.09
2023-09-08T02:08:06.898Z,98806.25
2023-09-08T02:10:57.599Z,98807.84
2023-09-08T02:13:48.415Z,98813.66
2023-09-08T02:16:39.089Z,98806.84
2023-09-08T02:19:29.906Z,98806.03
2023-09-08T02:22:20.700Z,98803.44
2023-09-08T02:25:11.438Z,98806.25
2023-09-08T02:28:02.219Z,98799.44
2023-09-08T02:30:53.017Z,98807.28
2023-09-08T02:33:43.884Z,98803.88
2023-09-08T02:36:34.680Z,98794.66
2023-09-08T02:39:28.102Z,98789.84
2023-09-08T02:42:18.860Z,98797.69
2023-09-08T02:45:09.964Z,98789.50
2023-09-08T02:48:00.699Z,98787.53
2023-09-08T02:50:51.395Z,98787.03
2023-09-08T02:53:42.365Z,98785.91
2023-09-08T02:56:33.141Z,98785.63
2023-09-08T02:59:23.800Z,98774.88
2023-09-08T03:02:14.687Z,98774.97
2023-09-08T03:05:05.618Z,98776.44
2023-09-08T03:07:56.358Z,98778.50
2023-09-08T03:10:47.099Z,98774.97
2023-09-08T03:13:37.806Z,98773.00
2023-09-08T03:16:28.561Z,98770.63
2023-09-08T03:19:19.353Z,98769.66
2023-09-08T03:22:10.035Z,98770.28
2023-09-08T03:25:00.732Z,98770.28
2023-09-08T03:27:51.458Z,98758.06
2023-09-08T03:30:42.183Z,98763.91
2023-09-08T03:33:33.151Z,98762.34
2023-09-08T03:36:24.082Z,98769.22
2023-09-08T03:39:14.796Z,98763.84
2023-09-08T03:42:05.650Z,98761.66
2023-09-08T03:44:56.331Z,98754.47
2023-09-08T03:47:47.054Z,98756.28
2023-09-08T03:50:37.771Z,98752.91
2023-09-08T03:53:28.478Z,98756.78
2023-09-08T03:56:19.314Z,98755.97
2023-09-08T03:59:10.010Z,98767.44
2023-09-08T04:02:02.238Z,98758.84
2023-09-08T04:04:52.943Z,98755.84
2023-09-08T04:07:43.883Z,98769.69
2023-09-08T04:10:34.782Z,98766.13
2023-09-08T04:13:25.468Z,98767.53
2023-09-08T04:16:16.733Z,98759.34
2023-09-08T04:19:07.488Z,98758.50
2023-09-08T04:21:58.147Z,98762.53
2023-09-08T04:24:48.886Z,98764.50
2023-09-08T04:27:39.745Z,98767.09
2023-09-08T04:30:30.432Z,98759.84
2023-09-08T04:33:21.227Z,98755.59
2023-09-08T04:36:12.297Z,98752.38
2023-09-08T04:39:03.072Z,98761.34
2023-09-08T04:41:53.786Z,98753.44
2023-09-08T04:44:46.134Z,98757.78
2023-09-08T04:47:38.785Z,98748.50
2023-09-08T04:50:29.557Z,98761.44
2023-09-08T04:53:20.256Z,98762.56
2023-09-08T04:56:11.079Z,98756.06
2023-09-08T04:59:02.212Z,98747.31
2023-09-08T05:01:53.144Z,98759.47
2023-09-08T05:04:43.813Z,98757.75
2023-09-08T05:07:34.527Z,98760.25
2023-09-08T05:10:26.246Z,98755.13
2023-09-08T05:13:30.260Z,98761.59
2023-09-08T05:16:37.376Z,98764.41
2023-09-08T05:19:28.370Z,98768.66
2023-09-08T05:22:19.433Z,98756.75
2023-09-08T05:25:10.656Z,98755.94
2023-09-08T05:28:01.826Z,98753.25
2023-09-08T05:30:54.688Z,98756.41
2023-09-08T05:33:45.569Z,98754.50
2023-09-08T05:36:41.018Z,98763.88
2023-09-08T05:39:31.922Z,98760.47
2023-09-08T05:42:22.674Z,98765.13
2023-09-08T05:45:13.395Z,98761.13
2023-09-08T05:48:04.474Z,98763.16
2023-09-08T05:50:55.691Z,98759.34
2023-09-08T05:53:46.508Z,98753.47
2023-09-08T05:56:39.393Z,98762.50
2023-09-08T05:59:30.582Z,98762.31
2023-09-08T06:02:21.301Z,98753.16
2023-09-08T06:05:12.064Z,98763.75
2023-09-08T06:08:07.595Z,98749.75
2023-09-08T06:10:58.752Z,98745.47
2023-09-08T06:13:49.483Z,98742.41
2023-09-08T06:16:41.129Z,98739.19
2023-09-08T06:19:32.058Z,98734.94
2023-09-08T06:22:23.261Z,98740.28
2023-09-08T06:25:14.094Z,98734.81
2023-09-08T06:28:05.244Z,98735.91
2023-09-08T06:30:56.344Z,98734.28
2023-09-08T06:33:47.311Z,98738.03
2023-09-08T06:36:38.384Z,98741.44
2023-09-08T06:39:29.580Z,98735.06
2023-09-08T06:42:20.302Z,98727.81
2023-09-08T06:45:11.229Z,98733.72
2023-09-08T06:48:02.330Z,98730.06
2023-09-08T06:50:57.490Z,98721.78
2023-09-08T06:53:57.539Z,98726.19
2023-09-08T06:56:48.243Z,98726.94
2023-09-08T06:59:39.006Z,98730.66
2023-09-08T07:02:29.712Z,98733.22
2023-09-08T07:05:20.692Z,98735.69
2023-09-08T07:08:11.562Z,98726.94
2023-09-08T07:11:02.331Z,98734.03
2023-09-08T07:13:53.021Z,98738.38
2023-09-08T07:16:43.994Z,98742.63
2023-09-08T07:19:34.788Z,98734.28
2023-09-08T07:22:25.547Z,98742.34
2023-09-08T07:25:16.291Z,98742.31
2023-09-08T07:28:07.101Z,98737.94
2023-09-08T07:31:05.842Z,98736.59
2023-09-08T07:33:56.660Z,98736.66
2023-09-08T07:36:47.315Z,98739.63
2023-09-08T07:39:38.000Z,98737.56
2023-09-08T07:42:28.708Z,98734.38
2023-09-08T07:45:19.434Z,98736.66
2023-09-08T07:48:10.275Z,98733.16
2023-09-08T07:51:01.347Z,98729.66
2023-09-08T07:53:52.996Z,98735.28
2023-09-08T07:56:43.785Z,98733.63
2023-09-08T07:59:36.016Z,98729.19
2023-09-08T08:02:28.564Z,98735.69
2023-09-08T08:05:19.414Z,98724.47
2023-09-08T08:08:10.855Z,98728.78
2023-09-08T08:11:01.579Z,98726.94
2023-09-08T08:13:52.732Z,98722.31
2023-09-08T08:16:43.488Z,98716.28
2023-09-08T08:19:34.347Z,98721.78
2023-09-08T08:22:26.486Z,98726.22
2023-09-08T08:25:17.301Z,98728.31
2023-09-08T08:28:07.985Z,98726.31
2023-09-08T08:30:58.853Z,98726.94
2023-09-08T08:33:49.808Z,98713.50
2023-09-08T08:36:40.581Z,98716.75
2023-09-08T08:39:31.274Z,98711.94
2023-09-08T08:42:23.686Z,98708.75
2023-09-08T08:45:15.321Z,98705.50
2023-09-08T08:48:07.230Z,98703.63
2023-09-08T08:51:00.107Z,98699.28
2023-09-08T08:53:50.874Z,98697.66
2023-09-08T08:56:42.645Z,98703.88
2023-09-08T08:59:33.776Z,98694.91
2023-09-08T09:02:27.188Z,98697.53
2023-09-08T09:05:18.464Z,98696.63
2023-09-08T09:08:10.634Z,98695.63
2023-09-08T09:11:01.423Z,98698.97
2023-09-08T09:13:52.115Z,98688.31
2023-09-08T09:16:44.343Z,98698.22
2023-09-08T09:19:36.713Z,98683.38
2023-09-08T09:22:38.269Z,98690.00
2023-09-08T09:25:31.920Z,98676.16
2023-09-08T09:28:22.939Z,98680.53
2023-09-08T09:31:13.821Z,98684.91
2023-09-08T09:34:06.420Z,98679.16
2023-09-08T09:36:57.957Z,98680.59
2023-09-08T09:39:53.786Z,98675.44
2023-09-08T09:42:44.686Z,98673.91
2023-09-08T09:45:36.746Z,98672.53
2023-09-08T09:48:29.115Z,98671.44
2023-09-08T09:51:21.109Z,98663.75
2023-09-08T09:54:13.092Z,98685.25
2023-09-08T09:57:04.899Z,98673.06
2023-09-08T09:59:57.342Z,98662.78
2023-09-08T10:02:48.541Z,98660.22
2023-09-08T10:05:39.335Z,98663.22
2023-09-08T10:08:34.215Z,98666.09
2023-09-08T10:11:29.405Z,98660.63
2023-09-08T10:14:20.217Z,98665.53
2023-09-08T10:17:18.199Z,98662.09
2023-09-08T10:20:14.265Z,98658.50
2023-09-08T10:23:37.949Z,98646.63
2023-09-08T10:26:30.693Z,98655.25
2023-09-08T10:29:23.369Z,98652.88
2023-09-08T10:32:15.034Z,98647.38
2023-09-08T10:35:07.227Z,98651.78
2023-09-08T10:38:27.731Z,98646.91
2023-09-08T10:41:18.559Z,98645.94
2023-09-08T10:44:10.069Z,98640.84
2023-09-08T10:47:00.835Z,98642.31
2023-09-08T10:49:56.163Z,98640.38
2023-09-08T10:53:15.702Z,98639.53
2023-09-08T10:56:18.614Z,98641.78
2023-09-08T10:59:11.570Z,98635.22
2023-09-08T11:02:05.329Z,98632.16
2023-09-08T11:04:56.555Z,98630.72
2023-09-08T11:07:50.380Z,98629.44
2023-09-08T11:10:42.080Z,98630.91
2023-09-08T11:13:32.758Z,98626.31
2023-09-08T11:16:30.543Z,98631.28
2023-09-08T11:19:21.884Z,98630.59
2023-09-08T11:22:12.701Z,98621.56
2023-09-08T11:25:07.107Z,98622.38
2023-09-08T11:27:58.645Z,98630.16
2023-09-08T11:30:50.741Z,98616.63
2023-09-08T11:33:42.131Z,98605.28
2023-09-08T11:36:32.978Z,98617.94
2023-09-08T11:39:26.700Z,98618.16
2023-09-08T11:42:18.483Z,98619.06
2023-09-08T11:45:09.688Z,98612.06
2023-09-08T11:48:00.537Z,98608.97
2023-09-08T11:50:54.776Z,98601.56
2023-09-08T11:53:46.118Z,98603.13
2023-09-08T11:56:38.028Z,98595.84
2023-09-08T11:59:34.334Z,98605.25
2023-09-08T12:02:25.088Z,98601.25
2023-09-08T12:05:29.268Z,98595.63
2023-09-08T12:08:20.040Z,98594.56
2023-09-08T12:11:10.856Z,98591.22
2023-09-08T12:14:02.853Z,98591.09
2023-09-08T12:17:08.984Z,98590.47
2023-09-08T12:19:59.851Z,98585.72
2023-09-08T12:22:52.358Z,98581.09
2023-09-08T12:25:51.431Z,98573.38
2023-09-08T12:28:42.188Z,98577.13
2023-09-08T12:31:33.173Z,98575.22
2023-09-08T12:34:24.049Z,98567.19
2023-09-08T12:37:14.775Z,98572.19
2023-09-08T12:40:06.633Z,98569.56
2023-09-08T12:43:02.948Z,98573.63
2023-09-08T12:46:00.850Z,98565.94
2023-09-08T12:48:51.507Z,98572.72
2023-09-08T12:51:43.074Z,98566.59
2023-09-08T12:54:33.897Z,98564.22
2023-09-08T12:57:24.670Z,98559.44
2023-09-08T13:00:15.590Z,98560.91
2023-09-08T13:03:06.569Z,98561.47
2023-09-08T13:05:57.280Z,98560.44
2023-09-08T13:08:47.930Z,98552.72
2023-09-08T13:11:38.764Z,98555.34
2023-09-08T13:14:29.432Z,98544.66
2023-09-08T13:17:20.202Z,98544.16
2023-09-08T13:20:11.838Z,98546.94
2023-09-08T13:23:02.557Z,98547.47
2023-09-08T13:25:53.261Z,98537.00
2023-09-08T13:28:44.499Z,98528.88
2023-09-08T13:31:35.279Z,98538.94
2023-09-08T13:34:26.269Z,98538.69
2023-09-08T13:37:17.031Z,98533.75
2023-09-08T13:40:09.320Z,98539.25
2023-09-08T13:43:01.571Z,98529.44
2023-09-08T13:45:52.299Z,98533.03
2023-09-08T13:48:44.139Z,98525.91
2023-09-08T13:51:38.405Z,98530.31
2023-09-08T13:54:30.397Z,98524.59
2023-09-08T13:57:23.083Z,98516.63
2023-09-08T14:00:17.151Z,98518.88
2023-09-08T14:03:13.395Z,98513.59
2023-09-08T14:06:11.611Z,98512.59
2023-09-08T14:09:40.410Z,98508.03
2023-09-08T14:15:08.649Z,98510.78
2023-09-08T14:17:59.381Z,98507.47
2023-09-08T14:20:50.097Z,98502.97
2023-09-08T14:23:41.858Z,98514.44
2023-09-08T14:26:32.761Z,98504.56
2023-09-08T14:29:24.547Z,98509.53
2023-09-08T14:32:15.459Z,98497.97
2023-09-08T14:35:06.911Z,98495.97
2023-09-08T14:37:57.666Z,98497.53
2023-09-08T14:41:00.330Z,98503.47
2023-09-08T14:43:51.083Z,98506.69
2023-09-08T14:46:41.901Z,98499.53
2023-09-08T14:49:32.743Z,98502.28
2023-09-08T14:52:23.799Z,98495.50
2023-09-08T14:55:14.869Z,98492.91
2023-09-08T14:58:05.580Z,98499.84
2023-09-08T15:00:56.437Z,98488.03
2023-09-08T15:03:47.454Z,98488.56
2023-09-08T15:06:38.380Z,98485.72
2023-09-08T15:09:29.146Z,98486.13
2023-09-08T15:12:19.963Z,98488.91
2023-09-08T15:15:11.116Z,98486.31
2023-09-08T15:18:01.878Z,98484.00
2023-09-08T15:20:54.138Z,98475.50
2023-09-08T15:23:45.372Z,98487.56
2023-09-08T15:26:36.255Z,98483.94
2023-09-08T15:29:27.302Z,98484.50
2023-09-08T15:32:18.006Z,98487.41
2023-09-08T15:35:09.384Z,98475.63
2023-09-08T15:38:00.173Z,98481.50
2023-09-08T15:41:09.442Z,98485.09
2023-09-08T15:44:00.296Z,98478.66
2023-09-08T15:46:50.996Z,98472.06
2023-09-08T15:49:42.804Z,98477.63
2023-09-08T15:52:33.521Z,98469.50
2023-09-08T15:55:25.105Z,98475.53
2023-09-08T15:58:15.811Z,98473.13
2023-09-08T16:01:07.846Z,98481.72
2023-09-08T16:03:58.728Z,98477.50
2023-09-08T16:06:49.641Z,98481.22
2023-09-08T16:09:40.328Z,98475.03
2023-09-08T16:12:32.744Z,98469.72
2023-09-08T16:15:23.426Z,98472.03
2023-09-08T16:18:14.256Z,98469.34
2023-09-08T16:21:05.012Z,98464.84
2023-09-08T16:23:55.964Z,98461.06
2023-09-08T16:26:49.958Z,98460.41
2023-09-08T16:29:40.949Z,98458.47
2023-09-08T16:32:31.678Z,98458.94
2023-09-08T16:35:22.448Z,98455.19
2023-09-08T16:38:13.939Z,98451.94
2023-09-08T16:41:04.663Z,98457.78
2023-09-08T16:43:55.346Z,98465.00
2023-09-08T16:46:46.023Z,98466.53
2023-09-08T16:49:36.865Z,98462.75
2023-09-08T16:52:27.534Z,98465.81
2023-09-08T16:55:18.231Z,98465.47
2023-09-08T16:58:08.881Z,98462.41
2023-09-08T17:00:59.612Z,98466.22
2023-09-08T17:03:50.602Z,98466.56
2023-09-08T17:06:41.361Z,98469.81
2023-09-08T17:09:32.161Z,98470.66
2023-09-08T17:12:23.444Z,98473.06
2023-09-08T17:15:14.265Z,98468.00
2023-09-08T17:18:05.216Z,98478.28
2023-09-08T17:20:59.334Z,98471.09
2023-09-08T17:23:50.290Z,98474.75
2023-09-08T17:26:41.039Z,98475.16
2023-09-08T17:29:33.153Z,98482.16
2023-09-08T17:32:23.982Z,98487.81
2023-09-08T17:35:15.030Z,98485.03
2023-09-08T17:38:06.406Z,98484.84
2023-09-08T17:40:58.522Z,98486.53
2023-09-08T17:43:50.348Z,98506.06
2023-09-08T17:46:41.213Z,98504.81
2023-09-08T17:49:31.987Z,98511.41
2023-09-08T17:52:22.718Z,98517.78
2023-09-08T17:55:14.822Z,98512.34
2023-09-08T17:58:05.622Z,98509.34
2023-09-08T18:00:56.348Z,98513.34
2023-09-08T18:03:48.488Z,98518.41
2023-09-08T18:06:39.407Z,98512.66
2023-09-08T18:09:30.466Z,98516.19
2023-09-08T18:12:22.342Z,98517.56
2023-09-08T18:15:13.080Z,98512.97
2023-09-08T18:18:03.991Z,98521.75
2023-09-08T18:20:54.877Z,98515.66
2023-09-08T18:23:47.135Z,98529.44
2023-09-08T18:26:38.219Z,98526.44
2023-09-08T18:29:29.844Z,98524.13
2023-09-08T18:32:20.600Z,98524.41
2023-09-08T18:35:11.418Z,98520.47
2023-09-08T18:38:02.406Z,98515.34
2023-09-08T18:40:53.115Z,98517.09
2023-09-08T18:43:44.915Z,98519.06
2023-09-08T18:46:35.672Z,98526.03
2023-09-08T18:49:26.562Z,98523.88
2023-09-08T18:52:17.266Z,98518.22
2023-09-08T18:55:08.572Z,98521.66
2023-09-08T18:57:59.297Z,98523.84
2023-09-08T19:00:50.095Z,98514.31
2023-09-08T19:03:43.871Z,98517.09
2023-09-08T19:06:34.602Z,98519.97
2023-09-08T19:09:25.307Z,98529.31
2023-09-08T19:12:15.982Z,98530.88
2023-09-08T19:15:07.404Z,98526.19
2023-09-08T19:17:58.186Z,98525.19
2023-09-08T19:20:48.920Z,98522.59
2023-09-08T19:23:39.651Z,98527.81
2023-09-08T19:26:30.475Z,98531.91
2023-09-08T19:29:21.178Z,98528.16
2023-09-08T19:32:11.843Z,98525.75
2023-09-08T19:35:02.516Z,98525.41
2023-09-08T19:37:58.854Z,98529.31
2023-09-08T19:40:49.553Z,98526.34
2023-09-08T19:43:40.975Z,98526.81
2023-09-08T19:46:36.921Z,98528.88
2023-09-08T19:49:27.691Z,98530.91
2023-09-08T19:52:18.761Z,98533.97
2023-09-08T19:55:10.007Z,98528.28
2023-09-08T19:58:01.201Z,98530.34
2023-09-08T20:00:51.999Z,98532.97
2023-09-08T20:03:42.844Z,98532.63
2023-09-08T20:06:33.617Z,98526.03
2023-09-08T20:09:27.064Z,98528.28
2023-09-08T20:12:17.733Z,98531.94
2023-09-08T20:15:08.784Z,98530.34
2023-09-08T20:18:00.448Z,98532.63
2023-09-08T20:20:56.425Z,98533.31
2023-09-08T20:23:47.298Z,98530.00
2023-09-08T20:26:38.044Z,98525.66
2023-09-08T20:29:29.575Z,98524.31
2023-09-08T20:32:20.677Z,98520.31
2023-09-08T20:35:11.444Z,98528.41
2023-09-08T20:38:02.231Z,98529.88
2023-09-08T20:40:53.589Z,98527.56
2023-09-08T20:43:44.490Z,98538.53
2023-09-08T20:46:35.282Z,98541.13
2023-09-08T20:49:26.089Z,98542.03
2023-09-08T20:52:16.787Z,98545.88
2023-09-08T20:55:10.452Z,98545.31
2023-09-08T20:58:01.125Z,98547.31
2023-09-08T21:00:51.901Z,98548.44
2023-09-08T21:03:42.599Z,98545.56
2023-09-08T21:06:33.374Z,98557.56
2023-09-08T21:09:24.177Z,98548.88
2023-09-08T21:12:14.982Z,98548.63
2023-09-08T21:15:06.762Z,98544.66
2023-09-08T21:17:57.570Z,98547.00
2023-09-08T21:20:49.247Z,98548.88
2023-09-08T21:23:40.946Z,98538.50
2023-09-08T21:26:31.736Z,98538.13
2023-09-08T21:29:22.469Z,98542.78
2023-09-08T21:32:13.171Z,98533.00
2023-09-08T21:35:05.438Z,98544.66
2023-09-08T21:37:56.239Z,98542.72
2023-09-08T21:40:47.037Z,98535.31
2023-09-08T21:43:38.605Z,98533.13
2023-09-08T21:46:32.464Z,98537.56
2023-09-08T21:49:23.417Z,98539.00
2023-09-08T21:52:18.783Z,98540.38
2023-09-08T21:55:20.481Z,98541.41
2023-09-08T21:58:11.325Z,98531.63
2023-09-08T22:01:02.147Z,98537.25
2023-09-08T22:03:53.154Z,98532.06
2023-09-08T22:06:44.045Z,98536.00
2023-09-08T22:09:34.720Z,98536.63
2023-09-08T22:12:25.387Z,98535.59
2023-09-08T22:15:16.323Z,98536.97
2023-09-08T22:18:07.084Z,98526.56
2023-09-08T22:20:57.802Z,98539.78
2023-09-08T22:23:51.881Z,98542.38
2023-09-08T22:26:42.554Z,98539.00
2023-09-08T22:29:33.215Z,98534.56
2023-09-08T22:32:23.946Z,98526.41
2023-09-08T22:35:15.212Z,98534.81
2023-09-08T22:38:05.969Z,98535.22
2023-09-08T22:40:56.709Z,98532.84
2023-09-08T22:43:47.514Z,98527.88
2023-09-08T22:46:38.337Z,98529.44
2023-09-08T22:49:29.589Z,98523.22
2023-09-08T22:52:20.814Z,98524.09
2023-09-08T22:55:23.387Z,98527.53
2023-09-08T22:58:16.382Z,98517.75
2023-09-08T23:01:07.819Z,98519.59
2023-09-08T23:03:58.589Z,98513.56
2023-09-08T23:06:49.448Z,98512.97
2023-09-08T23:09:42.367Z,98516.38
2023-09-08T23:12:33.070Z,98516.00
2023-09-08T23:15:25.990Z,98520.28
2023-09-08T23:18:16.812Z,98518.09
2023-09-08T23:21:07.857Z,98513.53
2023-09-08T23:23:59.084Z,98505.56
2023-09-08T23:26:49.946Z,98510.78
2023-09-08T23:29:40.735Z,98513.16
2023-09-08T23:32:31.901Z,98509.75
2023-09-08T23:35:22.861Z,98510.38
2023-09-08T23:38:13.623Z,98507.44
2023-09-08T23:41:04.993Z,98500.88
2023-09-08T23:43:55.684Z,98508.50
2023-09-08T23:46:46.456Z,98507.78
2023-09-08T23:49:37.178Z,98505.22
2023-09-08T23:52:28.791Z,98502.22
2023-09-08T23:55:19.648Z,98492.50
2023-09-08T23:58:10.333Z,98488.13
